TKPK

Details ICAO TKPK (SKB)
Name St. Kitts/Bradshaw Intl
Region Saint Kitts and Nevis
Timezone America/St_Kitts (UTC-4.0)
Plans Departing 117
Arriving 174
Stats Elevation 170 ft / 52 m (AMSL)
Location 17.311194° -62.718666°
Runways 1
Magnetic Variation 14.463° W
Sunrise 2018-05-21 09:38:49 UTC / 2018-05-21 05:38:49 Local
Sunset 2018-05-21 22:39:00 UTC / 2018-05-21 18:39:00 Local
Advertisement - Login to hide

Runways

ID Width Length Bearing (true) Bearing (mag) Surface Threshold Offset Overrun Length
07 148 ft / 45 m 7,620 ft / 2,323 m 56.95° 71.41° Asphalt 200 ft / 61 m 0 ft / 0 m
25 148 ft / 45 m 7,620 ft / 2,323 m 236.95° 251.41° Asphalt 0 ft / 0 m 0 ft / 0 m

Map

Weather


0- 5 10 15 20 25 30 35+ Temperature / ° C

Clouds and Precipitation
Forecast for 2018-05-21 12:00 UTC. Updated 2 hours ago

Ground ~20,000 ft ~40,000 ft Winds

METAR

TKPK 211300Z 06015KT 9999 SCT018 29/23 Q1016

TAF

TAF TKPK 211131Z 2112/2212 07011KT P6SM VCSH SCT018 FM211300 08015KT P6SM VCSH SCT020 SCT040 FM212300 06010KT P6SM VCSH SCT018 SCT030 AMD NOT SKED 2202/2211

Frequencies

Ground 121.90 MHz GND
Approach 119.60 MHz APP
Tower 118.30 MHz TWR
Warning: Do not use this data for real-world aviation or navigation. No guarantee of current accuracy is given.